createdAt,value
2023-05-14T00:00:31.034Z,10.28
2023-05-14T00:02:57.806Z,10.26
2023-05-14T00:05:24.643Z,10.23
2023-05-14T00:07:51.172Z,10.25
2023-05-14T00:10:19.219Z,10.20
2023-05-14T00:12:45.813Z,10.14
2023-05-14T00:15:12.858Z,10.15
2023-05-14T00:17:39.490Z,10.15
2023-05-14T00:20:07.391Z,10.13
2023-05-14T00:22:34.865Z,10.10
2023-05-14T00:25:01.388Z,10.08
2023-05-14T00:27:27.933Z,10.07
2023-05-14T00:29:54.524Z,10.04
2023-05-14T00:32:21.204Z,10.05
2023-05-14T00:34:47.759Z,10.06
2023-05-14T00:37:14.324Z,10.02
2023-05-14T00:39:41.082Z,10.03
2023-05-14T00:42:07.664Z,10.00
2023-05-14T00:44:34.258Z,9.97
2023-05-14T00:47:02.286Z,9.96
2023-05-14T00:49:29.365Z,9.85
2023-05-14T00:51:59.139Z,9.90
2023-05-14T00:54:26.179Z,9.87
2023-05-14T00:56:53.102Z,9.83
2023-05-14T00:59:19.689Z,9.79
2023-05-14T01:01:46.565Z,9.70
2023-05-14T01:04:13.460Z,9.73
2023-05-14T01:06:58.433Z,9.64
2023-05-14T01:09:50.486Z,9.62
2023-05-14T01:12:39.640Z,9.65
2023-05-14T01:15:19.509Z,9.60
2023-05-14T01:17:52.107Z,9.54
2023-05-14T01:20:18.927Z,9.49
2023-05-14T01:22:45.590Z,9.48
2023-05-14T01:25:12.253Z,9.43
2023-05-14T01:27:48.981Z,9.45
2023-05-14T01:30:36.195Z,9.45
2023-05-14T01:33:06.763Z,9.45
2023-05-14T01:35:33.871Z,9.37
2023-05-14T01:38:03.551Z,9.38
2023-05-14T01:40:32.004Z,9.34
2023-05-14T01:42:59.245Z,9.36
2023-05-14T01:45:26.348Z,9.33
2023-05-14T01:47:54.359Z,9.31
2023-05-14T01:50:21.267Z,9.29
2023-05-14T01:52:48.564Z,9.31
2023-05-14T01:55:15.971Z,9.21
2023-05-14T01:57:42.488Z,9.21
2023-05-14T02:00:09.502Z,9.18
2023-05-14T02:02:36.099Z,9.19
2023-05-14T02:05:03.903Z,9.15
2023-05-14T02:07:32.247Z,9.12
2023-05-14T02:09:58.812Z,9.08
2023-05-14T02:12:26.447Z,9.07
2023-05-14T02:14:52.990Z,9.03
2023-05-14T02:17:20.606Z,9.02
2023-05-14T02:19:47.353Z,8.99
2023-05-14T02:22:15.104Z,9.01
2023-05-14T02:24:41.693Z,8.99
2023-05-14T02:27:08.266Z,8.93
2023-05-14T02:29:34.838Z,8.91
2023-05-14T02:32:01.348Z,8.88
2023-05-14T02:34:27.856Z,8.83
2023-05-14T02:36:54.377Z,8.80
2023-05-14T02:39:20.952Z,8.80
2023-05-14T02:41:47.546Z,8.74
2023-05-14T02:44:14.148Z,8.76
2023-05-14T02:46:40.798Z,8.74
2023-05-14T02:49:07.391Z,8.68
2023-05-14T02:51:33.995Z,8.65
2023-05-14T02:54:00.661Z,8.66
2023-05-14T02:56:27.190Z,8.65
2023-05-14T02:58:53.696Z,8.62
2023-05-14T03:01:20.557Z,8.59
2023-05-14T03:03:47.665Z,8.55
2023-05-14T03:06:14.671Z,8.50
2023-05-14T03:08:41.754Z,8.47
2023-05-14T03:11:08.304Z,8.48
2023-05-14T03:13:34.845Z,8.42
2023-05-14T03:16:01.418Z,8.41
2023-05-14T03:18:30.721Z,8.38
2023-05-14T03:20:57.346Z,8.36
2023-05-14T03:23:23.924Z,8.35
2023-05-14T03:25:51.045Z,8.32
2023-05-14T03:28:17.572Z,8.31
2023-05-14T03:30:44.167Z,8.27
2023-05-14T03:33:13.867Z,8.26
2023-05-14T03:35:40.392Z,8.22
2023-05-14T03:38:07.627Z,8.25
2023-05-14T03:40:34.204Z,8.21
2023-05-14T03:43:00.915Z,8.22
2023-05-14T03:45:28.810Z,8.23
2023-05-14T03:47:56.771Z,8.17
2023-05-14T03:50:25.769Z,8.18
2023-05-14T03:52:52.848Z,8.10
2023-05-14T03:55:22.469Z,8.08
2023-05-14T03:57:49.338Z,8.12
2023-05-14T04:00:16.143Z,8.13
2023-05-14T04:02:42.872Z,8.09
2023-05-14T04:05:11.944Z,8.11
2023-05-14T04:07:38.473Z,8.05
2023-05-14T04:10:05.823Z,7.88
2023-05-14T04:12:32.322Z,7.79
2023-05-14T04:14:58.956Z,7.72
2023-05-14T04:17:26.043Z,7.66
2023-05-14T04:19:52.701Z,7.76
2023-05-14T04:22:19.239Z,7.74
2023-05-14T04:24:46.087Z,7.73
2023-05-14T04:27:19.694Z,7.79
2023-05-14T04:29:46.217Z,7.85
2023-05-14T04:32:12.830Z,7.89
2023-05-14T04:34:40.164Z,7.94
2023-05-14T04:37:07.161Z,8.01
2023-05-14T04:39:33.892Z,8.05
2023-05-14T04:42:00.494Z,8.10
2023-05-14T04:44:27.270Z,8.18
2023-05-14T04:46:53.778Z,8.25
2023-05-14T04:49:21.141Z,8.32
2023-05-14T04:51:48.381Z,8.36
2023-05-14T04:54:14.993Z,8.42
2023-05-14T04:56:41.675Z,8.47
2023-05-14T04:59:08.245Z,8.55
2023-05-14T05:01:34.871Z,8.57
2023-05-14T05:04:01.567Z,8.65
2023-05-14T05:06:28.175Z,8.68
2023-05-14T05:08:55.319Z,8.80
2023-05-14T05:11:21.872Z,8.88
2023-05-14T05:13:48.426Z,8.89
2023-05-14T05:16:15.018Z,9.01
2023-05-14T05:18:41.619Z,9.06
2023-05-14T05:21:08.146Z,9.15
2023-05-14T05:23:34.636Z,9.26
2023-05-14T05:26:01.285Z,9.36
2023-05-14T05:28:27.818Z,9.43
2023-05-14T05:30:54.382Z,9.53
2023-05-14T05:33:21.065Z,9.59
2023-05-14T05:35:48.393Z,9.68
2023-05-14T05:38:15.819Z,9.75
2023-05-14T05:40:42.459Z,9.85
2023-05-14T05:43:09.036Z,9.95
2023-05-14T05:45:35.535Z,10.05
2023-05-14T05:48:02.185Z,10.15
2023-05-14T05:50:28.639Z,10.31
2023-05-14T05:52:55.145Z,10.41
2023-05-14T05:55:21.792Z,10.49
2023-05-14T05:57:48.290Z,10.62
2023-05-14T06:00:15.396Z,10.70
2023-05-14T06:02:42.084Z,10.87
2023-05-14T06:05:11.771Z,10.95
2023-05-14T06:07:38.671Z,11.04
2023-05-14T06:10:06.560Z,11.16
2023-05-14T06:12:33.115Z,11.27
2023-05-14T06:15:01.559Z,11.43
2023-05-14T06:17:28.129Z,11.58
2023-05-14T06:19:54.648Z,11.68
2023-05-14T06:22:21.196Z,11.74
2023-05-14T06:24:48.124Z,11.79
2023-05-14T06:27:14.713Z,11.85
2023-05-14T06:29:41.157Z,11.94
2023-05-14T06:32:08.183Z,12.04
2023-05-14T06:34:34.817Z,12.08
2023-05-14T06:37:02.942Z,12.18
2023-05-14T06:39:29.627Z,12.23
2023-05-14T06:41:56.137Z,12.31
2023-05-14T06:44:22.709Z,12.43
2023-05-14T06:46:49.141Z,12.55
2023-05-14T06:49:15.716Z,12.60
2023-05-14T06:51:42.317Z,12.64
2023-05-14T06:54:08.837Z,12.70
2023-05-14T06:56:35.264Z,12.74
2023-05-14T06:59:01.838Z,12.81
2023-05-14T07:01:28.346Z,12.90
2023-05-14T07:03:54.988Z,12.96
2023-05-14T07:06:21.469Z,13.05
2023-05-14T07:08:48.264Z,13.07
2023-05-14T07:11:15.396Z,13.03
2023-05-14T07:13:42.984Z,13.07
2023-05-14T07:16:12.518Z,13.13
2023-05-14T07:18:39.281Z,13.24
2023-05-14T07:21:06.851Z,13.30
2023-05-14T07:23:36.527Z,13.36
2023-05-14T07:26:04.026Z,13.53
2023-05-14T07:28:30.733Z,13.60
2023-05-14T07:30:57.718Z,13.57
2023-05-14T07:37:47.996Z,13.84
2023-05-14T07:40:14.844Z,13.74
2023-05-14T07:42:41.514Z,13.84
2023-05-14T07:45:09.759Z,13.98
2023-05-14T07:47:37.949Z,14.03
2023-05-14T07:50:06.246Z,13.98
2023-05-14T07:52:33.097Z,14.11
2023-05-14T07:55:01.577Z,14.21
2023-05-14T07:57:28.210Z,14.19
2023-05-14T07:59:54.864Z,14.32
2023-05-14T08:02:21.920Z,14.40
2023-05-14T08:04:48.688Z,14.50
2023-05-14T08:07:15.559Z,14.52
2023-05-14T08:09:43.322Z,14.62
2023-05-14T08:12:13.107Z,14.73
2023-05-14T08:14:39.665Z,14.82
2023-05-14T08:17:06.321Z,14.88
2023-05-14T08:19:33.239Z,14.93
2023-05-14T08:21:59.768Z,14.96
2023-05-14T08:24:26.322Z,15.03
2023-05-14T08:26:53.190Z,15.07
2023-05-14T08:29:19.704Z,15.15
2023-05-14T08:31:46.178Z,15.18
2023-05-14T08:34:12.730Z,15.23
2023-05-14T08:36:39.461Z,15.34
2023-05-14T08:39:07.862Z,15.43
2023-05-14T08:41:34.913Z,15.59
2023-05-14T08:44:18.375Z,15.69
2023-05-14T08:46:45.571Z,15.84
2023-05-14T08:49:19.275Z,15.92
2023-05-14T08:51:49.291Z,16.08
2023-05-14T08:54:18.008Z,16.22
2023-05-14T08:56:46.621Z,16.33
2023-05-14T08:59:13.400Z,16.42
2023-05-14T09:01:46.736Z,16.48
2023-05-14T09:04:19.985Z,16.65
2023-05-14T09:06:49.656Z,16.84
2023-05-14T09:09:16.680Z,16.91
2023-05-14T09:11:46.096Z,17.02
2023-05-14T09:14:12.838Z,17.04
2023-05-14T09:16:42.738Z,17.19
2023-05-14T09:19:09.690Z,17.37
2023-05-14T09:21:38.349Z,17.53
2023-05-14T09:24:05.252Z,17.69
2023-05-14T09:26:33.136Z,17.70
2023-05-14T09:29:04.023Z,17.81
2023-05-14T09:31:32.243Z,17.99
2023-05-14T09:33:59.837Z,17.98
2023-05-14T09:36:29.565Z,18.09
2023-05-14T09:38:59.233Z,18.33
2023-05-14T09:41:25.893Z,18.41
2023-05-14T09:43:53.486Z,18.61
2023-05-14T09:46:20.076Z,18.75
2023-05-14T09:48:46.688Z,18.83
2023-05-14T09:51:13.994Z,18.90
2023-05-14T09:53:41.758Z,19.00
2023-05-14T09:56:08.967Z,19.11
2023-05-14T09:58:35.758Z,19.06
2023-05-14T10:01:02.915Z,19.19
2023-05-14T10:03:30.718Z,19.33
2023-05-14T10:06:05.188Z,19.47
2023-05-14T10:08:34.955Z,19.60
2023-05-14T10:11:06.131Z,19.67
2023-05-14T10:13:38.120Z,19.93
2023-05-14T10:16:29.361Z,19.99
2023-05-14T10:19:03.299Z,20.02
2023-05-14T10:21:33.258Z,20.04
2023-05-14T10:24:00.411Z,20.18
2023-05-14T10:26:28.082Z,20.20
2023-05-14T10:28:56.164Z,20.31
2023-05-14T10:31:47.699Z,20.47
2023-05-14T10:34:39.705Z,20.54
2023-05-14T10:37:26.296Z,20.74
2023-05-14T10:39:58.398Z,20.95
2023-05-14T10:42:33.345Z,21.11
2023-05-14T10:45:02.159Z,21.23
2023-05-14T10:47:29.809Z,21.21
2023-05-14T10:49:59.080Z,21.32
2023-05-14T10:52:26.631Z,21.53
2023-05-14T10:54:58.517Z,21.77
2023-05-14T10:57:32.582Z,21.87
2023-05-14T11:00:03.338Z,22.11
2023-05-14T11:02:41.448Z,22.27
2023-05-14T11:05:11.329Z,22.35
2023-05-14T11:07:40.130Z,21.88
2023-05-14T11:10:08.375Z,22.19
2023-05-14T11:12:36.625Z,22.61
2023-05-14T11:15:06.373Z,22.77
2023-05-14T11:17:35.049Z,22.86
2023-05-14T11:20:02.162Z,23.02
2023-05-14T11:22:28.753Z,23.18
2023-05-14T11:24:55.273Z,23.08
2023-05-14T11:27:23.194Z,23.31
2023-05-14T11:29:50.446Z,23.16
2023-05-14T11:32:17.935Z,22.82
2023-05-14T11:34:46.064Z,22.68
2023-05-14T11:37:14.926Z,22.34
2023-05-14T11:39:49.414Z,22.18
2023-05-14T11:42:18.772Z,21.72
2023-05-14T11:44:50.314Z,21.57
2023-05-14T11:47:18.476Z,21.34
2023-05-14T11:49:45.630Z,21.26
2023-05-14T11:52:15.415Z,21.06
2023-05-14T11:54:45.741Z,20.96
2023-05-14T11:57:14.642Z,20.87
2023-05-14T11:59:41.336Z,20.88
2023-05-14T12:02:12.700Z,20.76
2023-05-14T12:04:40.492Z,20.83
2023-05-14T12:07:12.450Z,20.91
2023-05-14T12:09:49.060Z,21.18
2023-05-14T12:12:18.950Z,21.37
2023-05-14T12:14:46.765Z,21.50
2023-05-14T12:17:23.478Z,21.72
2023-05-14T12:19:51.928Z,21.93
2023-05-14T12:22:20.991Z,22.03
2023-05-14T12:24:58.739Z,22.13
2023-05-14T12:27:26.804Z,22.21
2023-05-14T12:30:09.103Z,22.23
2023-05-14T12:32:46.730Z,22.22
2023-05-14T12:35:13.337Z,22.20
2023-05-14T12:37:40.113Z,22.03
2023-05-14T12:40:11.668Z,21.90
2023-05-14T12:42:38.229Z,21.58
2023-05-14T12:45:08.089Z,21.37
2023-05-14T12:47:35.171Z,21.23
2023-05-14T12:50:02.137Z,21.11
2023-05-14T12:52:37.492Z,20.93
2023-05-14T12:55:09.740Z,20.96
2023-05-14T12:57:37.249Z,20.83
2023-05-14T13:00:07.992Z,20.84
2023-05-14T13:02:42.368Z,20.88
2023-05-14T13:05:10.780Z,21.26
2023-05-14T13:07:37.657Z,21.60
2023-05-14T13:10:05.947Z,22.00
2023-05-14T13:12:32.834Z,22.44
2023-05-14T13:15:00.235Z,22.70
2023-05-14T13:17:26.912Z,22.92
2023-05-14T13:19:53.598Z,23.02
2023-05-14T13:22:23.131Z,22.96
2023-05-14T13:24:49.641Z,22.82
2023-05-14T13:27:16.268Z,22.55
2023-05-14T13:29:42.827Z,22.43
2023-05-14T13:32:09.369Z,22.15
2023-05-14T13:34:36.394Z,21.99
2023-05-14T13:37:03.003Z,21.80
2023-05-14T13:39:29.552Z,21.57
2023-05-14T13:41:56.964Z,21.47
2023-05-14T13:44:23.783Z,21.42
2023-05-14T13:46:50.571Z,21.21
2023-05-14T13:49:17.331Z,21.13
2023-05-14T13:51:44.170Z,21.15
2023-05-14T13:54:10.761Z,21.04
2023-05-14T13:56:37.258Z,21.20
2023-05-14T13:59:04.157Z,21.48
2023-05-14T14:01:31.124Z,21.78
2023-05-14T14:03:57.768Z,21.94
2023-05-14T14:06:26.254Z,22.06
2023-05-14T14:08:53.246Z,22.29
2023-05-14T14:11:19.828Z,22.51
2023-05-14T14:13:46.840Z,22.64
2023-05-14T14:16:13.560Z,22.75
2023-05-14T14:18:40.230Z,22.69
2023-05-14T14:21:06.852Z,22.51
2023-05-14T14:23:33.420Z,22.32
2023-05-14T14:26:00.622Z,22.18
2023-05-14T14:28:27.169Z,21.97
2023-05-14T14:30:53.736Z,21.89
2023-05-14T14:33:20.272Z,21.75
2023-05-14T14:35:46.825Z,21.61
2023-05-14T14:38:13.842Z,21.58
2023-05-14T14:40:40.368Z,21.70
2023-05-14T14:43:06.895Z,21.87
2023-05-14T14:45:33.457Z,21.99
2023-05-14T14:48:41.386Z,22.21
2023-05-14T14:51:09.369Z,22.45
2023-05-14T14:53:37.208Z,22.65
2023-05-14T14:56:04.084Z,22.80
2023-05-14T14:58:31.263Z,22.85
2023-05-14T15:00:58.430Z,22.96
2023-05-14T15:03:25.439Z,22.88
2023-05-14T15:05:53.668Z,22.82
2023-05-14T15:08:21.002Z,22.63
2023-05-14T15:10:47.605Z,22.38
2023-05-14T15:13:14.181Z,22.22
2023-05-14T15:15:40.754Z,22.03
2023-05-14T15:18:07.359Z,21.81
2023-05-14T15:20:33.994Z,21.66
2023-05-14T15:23:00.598Z,21.49
2023-05-14T15:25:27.441Z,21.36
2023-05-14T15:27:53.981Z,21.24
2023-05-14T15:30:20.783Z,21.15
2023-05-14T15:32:47.485Z,21.13
2023-05-14T15:35:14.139Z,21.05
2023-05-14T15:37:42.756Z,21.02
2023-05-14T15:40:12.367Z,21.01
2023-05-14T15:42:43.785Z,21.18
2023-05-14T15:45:12.629Z,21.32
2023-05-14T15:47:39.557Z,21.50
2023-05-14T15:50:06.948Z,21.72
2023-05-14T15:52:34.389Z,21.89
2023-05-14T15:55:00.968Z,22.13
2023-05-14T15:57:27.749Z,22.21
2023-05-14T15:59:54.498Z,22.27
2023-05-14T16:02:21.005Z,22.29
2023-05-14T16:04:49.559Z,22.17
2023-05-14T16:07:16.351Z,22.03
2023-05-14T16:09:42.876Z,21.84
2023-05-14T16:12:09.443Z,21.68
2023-05-14T16:14:36.303Z,21.49
2023-05-14T16:17:02.985Z,21.31
2023-05-14T16:19:29.526Z,21.23
2023-05-14T16:21:56.114Z,21.16
2023-05-14T16:24:22.658Z,21.09
2023-05-14T16:26:49.363Z,21.00
2023-05-14T16:29:16.212Z,21.00
2023-05-14T16:31:43.442Z,20.98
2023-05-14T16:34:09.976Z,20.91
2023-05-14T16:36:36.591Z,20.81
2023-05-14T16:41:32.985Z,20.67
2023-05-14T16:44:00.147Z,20.68
2023-05-14T16:46:28.364Z,20.62
2023-05-14T16:48:55.455Z,20.58
2023-05-14T16:51:22.012Z,20.51
2023-05-14T16:53:48.530Z,20.40
2023-05-14T16:56:15.058Z,20.27
2023-05-14T16:58:41.657Z,20.24
2023-05-14T17:01:09.874Z,20.18
2023-05-14T17:03:37.003Z,20.06
2023-05-14T17:06:04.742Z,19.99
2023-05-14T17:08:33.702Z,19.97
2023-05-14T17:11:00.348Z,19.86
2023-05-14T17:13:26.901Z,19.83
2023-05-14T17:15:53.554Z,19.83
2023-05-14T17:18:20.149Z,19.80
2023-05-14T17:20:46.720Z,19.84
2023-05-14T17:23:13.602Z,19.78
2023-05-14T17:25:40.368Z,19.68
2023-05-14T17:28:06.935Z,19.71
2023-05-14T17:30:33.501Z,19.62
2023-05-14T17:33:00.129Z,19.56
2023-05-14T17:35:26.906Z,19.49
2023-05-14T17:37:53.653Z,19.41
2023-05-14T17:40:20.191Z,19.38
2023-05-14T17:42:46.805Z,19.36
2023-05-14T17:45:14.608Z,19.26
2023-05-14T17:47:41.353Z,19.18
2023-05-14T17:50:08.387Z,19.16
2023-05-14T17:52:34.940Z,19.07
2023-05-14T17:55:01.536Z,19.05
2023-05-14T17:57:28.216Z,18.92
2023-05-14T17:59:54.763Z,18.93
2023-05-14T18:02:21.423Z,18.80
2023-05-14T18:04:47.914Z,18.73
2023-05-14T18:07:14.792Z,18.63
2023-05-14T18:09:41.347Z,18.58
2023-05-14T18:12:08.589Z,18.45
2023-05-14T18:14:35.520Z,18.38
2023-05-14T18:17:02.201Z,18.37
2023-05-14T18:19:31.175Z,18.34
2023-05-14T18:21:59.398Z,18.24
2023-05-14T18:24:26.349Z,18.23
2023-05-14T18:26:53.019Z,18.09
2023-05-14T18:29:19.545Z,18.08
2023-05-14T18:31:46.191Z,18.02
2023-05-14T18:34:16.671Z,17.98
2023-05-14T18:36:43.404Z,17.87
2023-05-14T18:39:10.044Z,17.76
2023-05-14T18:41:36.559Z,17.86
2023-05-14T18:44:03.148Z,17.73
2023-05-14T18:46:29.925Z,17.79
2023-05-14T18:48:56.652Z,17.72
2023-05-14T18:51:23.232Z,17.63
2023-05-14T18:53:49.754Z,17.64
2023-05-14T18:56:19.235Z,17.57
2023-05-14T18:58:46.449Z,17.50
2023-05-14T19:01:13.007Z,17.43
2023-05-14T19:03:41.685Z,17.39
2023-05-14T19:06:08.411Z,17.32
2023-05-14T19:08:34.948Z,17.24
2023-05-14T19:11:01.923Z,17.21
2023-05-14T19:13:28.724Z,17.14
2023-05-14T19:15:55.628Z,17.10
2023-05-14T19:18:22.295Z,17.08
2023-05-14T19:20:48.837Z,17.00
2023-05-14T19:23:15.500Z,16.98
2023-05-14T19:25:42.010Z,16.89
2023-05-14T19:28:08.584Z,16.86
2023-05-14T19:30:35.123Z,16.78
2023-05-14T19:33:01.676Z,16.74
2023-05-14T19:35:28.182Z,16.64
2023-05-14T19:37:54.820Z,16.55
2023-05-14T19:40:21.400Z,16.47
2023-05-14T19:42:47.904Z,16.51
2023-05-14T19:45:14.419Z,16.48
2023-05-14T19:47:41.788Z,16.41
2023-05-14T19:50:08.861Z,16.41
2023-05-14T19:52:38.184Z,16.33
2023-05-14T19:55:05.070Z,16.40
2023-05-14T19:57:31.579Z,16.33
2023-05-14T19:59:58.255Z,16.35
2023-05-14T20:02:24.856Z,16.35
2023-05-14T20:04:51.738Z,16.29
2023-05-14T20:07:18.447Z,16.26
2023-05-14T20:09:45.997Z,16.24
2023-05-14T20:12:13.366Z,16.16
2023-05-14T20:14:41.135Z,16.19
2023-05-14T20:17:07.694Z,16.14
2023-05-14T20:19:34.924Z,16.09
2023-05-14T20:22:01.478Z,16.13
2023-05-14T20:24:28.708Z,16.06
2023-05-14T20:26:56.944Z,15.97
2023-05-14T20:29:23.595Z,16.00
2023-05-14T20:31:53.837Z,15.98
2023-05-14T20:34:20.435Z,15.91
2023-05-14T20:36:47.044Z,15.87
2023-05-14T20:39:14.325Z,15.90
2023-05-14T20:41:40.970Z,15.88
2023-05-14T20:44:07.872Z,15.82
2023-05-14T20:46:34.543Z,15.85
2023-05-14T20:49:04.582Z,15.81
2023-05-14T20:51:33.078Z,15.65
2023-05-14T20:53:59.765Z,15.60
2023-05-14T20:56:26.795Z,15.62
2023-05-14T20:58:53.330Z,15.53
2023-05-14T21:01:19.904Z,15.58
2023-05-14T21:03:46.757Z,15.48
2023-05-14T21:06:15.180Z,15.56
2023-05-14T21:08:41.769Z,15.53
2023-05-14T21:11:08.719Z,15.54
2023-05-14T21:13:35.231Z,15.53
2023-05-14T21:16:03.554Z,15.53
2023-05-14T21:18:32.932Z,15.53
2023-05-14T21:21:00.010Z,15.44
2023-05-14T21:23:26.640Z,15.41
2023-05-14T21:25:54.944Z,15.32
2023-05-14T21:28:22.671Z,15.32
2023-05-14T21:30:50.852Z,15.19
2023-05-14T21:33:18.171Z,15.09
2023-05-14T21:35:44.758Z,15.09
2023-05-14T21:38:11.845Z,15.12
2023-05-14T21:40:38.354Z,15.02
2023-05-14T21:43:04.870Z,14.97
2023-05-14T21:45:31.524Z,14.94
2023-05-14T21:47:58.259Z,14.82
2023-05-14T21:50:24.859Z,14.77
2023-05-14T21:52:51.477Z,14.74
2023-05-14T21:55:18.015Z,14.61
2023-05-14T21:57:44.605Z,14.72
2023-05-14T22:00:13.259Z,14.63
2023-05-14T22:02:39.954Z,14.59
2023-05-14T22:05:06.746Z,14.51
2023-05-14T22:07:33.382Z,14.58
2023-05-14T22:09:59.996Z,14.60
2023-05-14T22:12:26.901Z,14.54
2023-05-14T22:14:54.805Z,14.59
2023-05-14T22:17:21.981Z,14.60
2023-05-14T22:19:48.563Z,14.54
2023-05-14T22:22:15.103Z,14.50
2023-05-14T22:24:41.695Z,14.64
2023-05-14T22:27:08.236Z,14.64
2023-05-14T22:29:36.717Z,14.60
2023-05-14T22:32:07.600Z,14.55
2023-05-14T22:34:34.105Z,14.53
2023-05-14T22:37:00.624Z,14.56
2023-05-14T22:39:27.213Z,14.51
2023-05-14T22:41:55.304Z,14.49
2023-05-14T22:44:22.958Z,14.54
2023-05-14T22:46:50.210Z,14.53
2023-05-14T22:49:16.770Z,14.49
2023-05-14T22:51:43.306Z,14.38
2023-05-14T22:54:10.770Z,14.37
2023-05-14T22:56:37.935Z,14.33
2023-05-14T22:59:04.738Z,14.24
2023-05-14T23:01:31.783Z,14.22
2023-05-14T23:03:58.432Z,14.11
2023-05-14T23:06:25.346Z,13.87
2023-05-14T23:08:51.911Z,13.81
2023-05-14T23:11:18.412Z,13.69
2023-05-14T23:13:44.847Z,13.71
2023-05-14T23:16:11.370Z,13.67
2023-05-14T23:18:37.925Z,13.60
2023-05-14T23:21:04.735Z,13.53
2023-05-14T23:23:31.332Z,13.55
2023-05-14T23:25:57.960Z,13.35
2023-05-14T23:28:24.598Z,13.27
2023-05-14T23:30:51.130Z,13.35
2023-05-14T23:33:17.651Z,13.23
2023-05-14T23:35:44.280Z,13.29
2023-05-14T23:38:10.901Z,13.25
2023-05-14T23:40:37.503Z,13.27
2023-05-14T23:43:03.963Z,13.27
2023-05-14T23:45:30.840Z,13.24
2023-05-14T23:47:58.805Z,13.17
2023-05-14T23:50:25.759Z,13.04
2023-05-14T23:52:53.219Z,13.07
2023-05-14T23:55:20.079Z,13.05
2023-05-14T23:57:47.415Z,13.11
